x

South Hatteras - 225 South Of Cape Hatteras (41002) Wave Buoy

1:50 - Wed 2nd Sep 2015 All times are EDT. -4 hours from GMT.

  • Sig Wave height 2.6ft
  • Swell Direction
  • Peak Period 9s
  • Average Period 5s
  • Wind
    9mph, 11mph gusts
  • Sea Temp 84°f
  • Air Temp 84°f
  • Sea Pressure 1018.2mb
  • South Hatteras - 225 South Of Cape Hatteras
  • South Hatteras - 225 South Of Cape Hatteras

More Historic Weather Station data

Upgrade to MSW Pro to gain access to the past 30 days of data for over 8000 Wavebouys and Weather Stations around the globe.

Join Pro

Comparision Forecast

View Surf forecast
   
mer. 09/02 1:50 2.5ft 9s 5s 9 11 mph 1018.2mb 84f 84f
12:50 2.5ft 5s 5s 9 13 mph 1018.3mb 84f 84f
mar. 09/01 11:50 2.5ft 5s 5s 9 11 mph 1018.4mb 85f 84f
10:50 3ft 6s 5s 9 11 mph 1018.6mb 85f 84f
9:50 3ft 5s 5s 7 9 mph 1018.8mb 85f 84f
8:50 3ft 6s 5s 7 11 mph 1018.5mb 85f 84f
7:50 3ft 6s 5s 7 9 mph 1018mb 85f 83f
6:50 3ft 7s 5s 7 11 mph 1018mb 85f 84f
5:50 3ft 6s 5s 7 9 mph 1018mb 85f 84f
4:50 3ft 6s 5s 7 9 mph 1018mb 85f 85f
3:50 3ft 6s 5s 4 7 mph 1018mb 85f 84f
2:50 3ft 6s 5s 4
mph
1018.6mb 85f 85f
1:50 3ft 6s 5s 4
mph
1019.2mb 84f 84f
12:50 3ft 6s 5s 7 9 mph 1019.1mb 84f 84f
11:50 3ft 7s 5s 2 4 mph 1019.5mb 84f 83f
10:50 3ft 6s 5s 11 13 mph 1019.6mb 84f 84f
9:50 3.5ft 6s 5s 11 13 mph 1019.1mb 84f 84f
8:50 3.5ft 7s 5s 11 13 mph 1018.7mb 84f 84f
7:50 3.5ft 6s 5s 11 13 mph 1018.5mb 84f 84f
6:50 3.5ft 7s 6s 11 13 mph 1018mb 84f 84f
5:50 4ft 7s 5s 11
mph
1018.1mb 84f 84f
4:50 4ft 7s 5s 9 11 mph 1018.1mb 84f 84f
3:50 4ft 7s 6s 9 11 mph 1018.2mb 84f 84f
2:50 4.5ft 7s 6s 13 16 mph 1018.5mb 84f 84f
1:50 4ft 6s 5s 13 16 mph 1019mb 84f 84f
12:50 4ft 6s 5s 13 16 mph 1019.3mb 84f 83f
lun. 08/31 11:50 4ft 7s 5s 13 16 mph 1019.4mb 84f 84f
10:50 4.5ft 6s 5s 13 16 mph 1019.6mb 84f 84f
9:50 4.5ft 7s 5s 13 16 mph 1019.7mb 84f 84f
8:50 4ft 7s 5s 16 20 mph 1018.5mb 84f 84f
7:50 4ft 6s 5s 16 18 mph 1018.6mb 84f 84f
6:50 4ft 6s 5s 13 16 mph 1018.8mb 84f 84f
5:50 4ft 7s 5s 16 20 mph 1018.6mb 84f 85f
4:50 3.5ft 7s 5s 16 18 mph 1018.7mb 84f 84f
3:50 3.5ft 6s 5s 16 18 mph 1018.5mb 84f 84f
2:50 3.5ft 8s 5s 16 20 mph 1019.4mb 84f 84f
12:50 3.5ft 7s 5s 13 16 mph 1020mb 84f 84f
11:50 3.5ft 9s 6s 16 18 mph 1020.1mb 84f 84f
10:50 3.5ft 8s 6s 16 18 mph 1020.1mb 84f 83f
9:50 3.5ft 8s 6s 16 20 mph 1019.8mb 84f 83f
8:50 3.5ft 9s 6s 11 13 mph 1019.6mb 84f 82f
7:50 3.5ft 10s 6s 13 18 mph 1019.6mb 84f 83f
6:50 3.5ft 8s 6s 9 11 mph 1019.6mb 84f 83f
5:50 4ft 8s 6s 9 11 mph 1019.6mb 84f 83f
4:50 3.5ft 8s 6s 9 11 mph 1019.8mb 84f 83f
3:50 4ft 8s 6s 9 11 mph 1020mb 84f 83f
2:50 4.5ft 8s 7s 9 11 mph 1020.2mb 84f 83f
1:50 4ft 9s 6s 9 13 mph 1020.2mb 84f 83f
12:50 4ft 9s 7s 11 13 mph 1020.5mb 84f 83f
dim. 08/30 11:50 4ft 8s 7s 9 11 mph 1020.6mb 84f 84f
10:50 4ft 9s 7s 9 13 mph 1020.8mb 84f 84f
9:50 4ft 9s 7s 9 13 mph 1020.9mb 84f 84f
8:50 4.5ft 9s 7s 9 11 mph 1020.5mb 84f 84f
7:50 4.5ft 9s 7s 7 9 mph 1020.2mb 85f 83f
6:50 4.5ft 10s 7s 9 11 mph 1019.9mb 85f 83f
5:50 4.5ft 9s 6s 9 11 mph 1020mb 85f 83f
4:50 4.5ft 10s 7s 7 9 mph 1020.2mb 85f 83f
3:50 4.5ft 10s 7s 9 11 mph 1020.4mb 85f 83f
2:50 4.5ft 10s 7s  -  2 mph 1020.9mb 84f 82f
1:50 4.5ft 10s 7s 4 11 mph 1021.4mb 84f 79f
12:50 4ft 10s 7s 2 4 mph 1021.5mb 84f 83f
11:50  -   -   -  4 9 mph 1021.6mb 84f 83f
10:50 4ft 9s 7s 4 7 mph 1021.6mb 84f 84f
9:50 4.5ft 10s 7s 4 7 mph 1021.3mb 84f 84f
8:50 4.5ft 10s 7s 4 7 mph 1020.8mb 83f 84f
7:50 4ft 11s 7s 4 7 mph 1020.4mb 83f 84f
6:50 4.5ft 10s 7s 7 9 mph 1020mb 84f 83f
5:50 4.5ft 10s 7s 4 7 mph 1019.3mb 84f 83f
4:50 5ft 10s 7s 7 9 mph 1018.9mb 84f 83f
3:50 4.5ft 11s 7s 9 11 mph 1019mb 84f 83f
2:50 5ft 11s 8s 9 11 mph 1019.6mb 84f 83f
1:50 4.5ft 9s 7s 9 11 mph 1020.3mb 84f 83f
12:50 4.5ft 11s 7s 7 9 mph 1020.6mb 84f 83f
sam. 08/29 11:50 4.5ft 11s 7s 9 11 mph 1020.5mb 84f 83f
10:50 4.5ft 11s 7s 9 13 mph 1020.3mb 84f 83f
9:50 4.5ft 10s 7s 7
mph
1019.9mb 84f 83f
8:50 5ft 11s 7s 2
mph
1019.7mb 84f 83f
7:50 4.5ft 11s 7s 4 9 mph 1019.7mb 84f 82f
6:50 4.5ft 11s 7s 2 4 mph 1019.9mb 84f 83f
5:50 4.5ft 11s 7s  -  2 mph 1019.1mb 84f 83f
4:50 4.5ft 11s 7s 2 4 mph 1019.1mb 84f 83f
3:50 4.5ft 11s 6s 4 7 mph 1019.8mb 84f 82f
2:50 4ft 10s 6s 11 16 mph 1020.8mb 84f 81f
1:50 4.5ft 11s 7s 9 13 mph 1021.6mb 84f 84f
12:50 4.5ft 11s 7s 11 13 mph 1021.4mb 84f 84f
11:50 4ft 11s 7s 13 16 mph 1021.2mb 83f 83f
10:50 4.5ft 11s 6s 13 16 mph 1021.4mb 83f 83f
9:50 5ft 11s 7s 13 18 mph 1020.6mb 83f 83f
8:50 5ft 11s 7s 13 18 mph 1020.2mb 83f 83f
7:50 4.5ft 11s 7s 13 16 mph 1020.2mb 83f 83f
6:50 5ft 11s 7s 16 18 mph 1019.9mb 83f 82f